Snoqualmie River: North Fork station

back to: Snoqualmie river
North Fork station Summary - (NOAA Hydrograph: SNQW1)
Latest reading:
Thu12/12 07:15 am 3.4 ft 414 cfs (steady)
Past 24hr max:
Thu12/12 07:15 am 3.4 ft 414 cfs
Forecasted crests: (published Thu 12/12/19 05:47 am)
Fri12/13 04:00 am 4.21 ft 794 cfs
Mon12/16 10:00 pm 2.96 ft 268 cfs
Thu12/19 10:00 pm 3.08 ft 303 cfs

North Fork station Details

Latest Readings

Last 100 Readings:
Thu12/12 07:15 am 3.4 ft 414 cfs
Thu12/12 07:00 am 3.4 ft 414 cfs
Thu12/12 06:45 am 3.38 ft 406 cfs
Thu12/12 06:30 am 3.36 ft 399 cfs
Thu12/12 06:15 am 3.34 ft 391 cfs
Thu12/12 06:00 am 3.32 ft 384 cfs
Thu12/12 05:45 am 3.3 ft 377 cfs
Thu12/12 05:30 am 3.31 ft 381 cfs
Thu12/12 05:15 am 3.29 ft 373 cfs
Thu12/12 05:00 am 3.28 ft 370 cfs
Thu12/12 04:45 am 3.27 ft 366 cfs
Thu12/12 04:30 am 3.27 ft 366 cfs
Thu12/12 04:15 am 3.26 ft 363 cfs
Thu12/12 04:00 am 3.26 ft 363 cfs
Thu12/12 03:45 am 3.24 ft 356 cfs
Thu12/12 03:30 am 3.23 ft 352 cfs
Thu12/12 03:15 am 3.23 ft 352 cfs
Thu12/12 03:00 am 3.23 ft 352 cfs
Thu12/12 02:45 am 3.22 ft 349 cfs
Thu12/12 02:30 am 3.22 ft 349 cfs
Thu12/12 02:15 am 3.21 ft 346 cfs
Thu12/12 02:00 am 3.2 ft 342 cfs
Thu12/12 01:45 am 3.19 ft 339 cfs
Thu12/12 01:30 am 3.2 ft 342 cfs
Thu12/12 01:15 am 3.19 ft 339 cfs
Thu12/12 01:00 am 3.2 ft 342 cfs
Thu12/12 12:45 am 3.18 ft 335 cfs
Thu12/12 12:30 am 3.18 ft 335 cfs
Thu12/12 12:15 am 3.17 ft 332 cfs
Thu12/12 12:00 am 3.17 ft 332 cfs
Wed12/11 11:45 pm 3.16 ft 329 cfs
Wed12/11 11:30 pm 3.16 ft 329 cfs
Wed12/11 11:15 pm 3.15 ft 326 cfs
Wed12/11 11:00 pm 3.15 ft 326 cfs
Wed12/11 10:45 pm 3.14 ft 322 cfs
Wed12/11 10:30 pm 3.14 ft 322 cfs
Wed12/11 10:15 pm 3.14 ft 322 cfs
Wed12/11 10:00 pm 3.14 ft 322 cfs
Wed12/11 09:45 pm 3.14 ft 322 cfs
Wed12/11 09:30 pm 3.14 ft 322 cfs
Wed12/11 09:15 pm 3.13 ft 319 cfs
Wed12/11 09:00 pm 3.13 ft 319 cfs
Wed12/11 08:45 pm 3.12 ft 316 cfs
Wed12/11 08:30 pm 3.12 ft 316 cfs
Wed12/11 08:15 pm 3.12 ft 316 cfs
Wed12/11 08:00 pm 3.11 ft 313 cfs
Wed12/11 07:45 pm 3.11 ft 313 cfs
Wed12/11 07:30 pm 3.12 ft 316 cfs
Wed12/11 07:15 pm 3.11 ft 313 cfs
Wed12/11 07:00 pm 3.11 ft 313 cfs
Wed12/11 06:45 pm 3.11 ft 313 cfs
Wed12/11 06:30 pm 3.11 ft 313 cfs
Wed12/11 06:15 pm 3.1 ft 309 cfs
Wed12/11 06:00 pm 3.11 ft 313 cfs
Wed12/11 05:45 pm 3.11 ft 313 cfs
Wed12/11 05:30 pm 3.11 ft 313 cfs
Wed12/11 05:15 pm 3.1 ft 309 cfs
Wed12/11 05:00 pm 3.1 ft 309 cfs
Wed12/11 04:45 pm 3.1 ft 309 cfs
Wed12/11 04:30 pm 3.09 ft 306 cfs
Wed12/11 04:15 pm 3.1 ft 309 cfs
Wed12/11 04:00 pm 3.1 ft 309 cfs
Wed12/11 03:45 pm 3.1 ft 309 cfs
Wed12/11 03:30 pm 3.1 ft 309 cfs
Wed12/11 03:15 pm 3.1 ft 309 cfs
Wed12/11 03:00 pm 3.09 ft 306 cfs
Wed12/11 02:45 pm 3.11 ft 313 cfs
Wed12/11 02:30 pm 3.1 ft 309 cfs
Wed12/11 02:15 pm 3.09 ft 306 cfs
Wed12/11 02:00 pm 3.09 ft 306 cfs
Wed12/11 01:45 pm 3.1 ft 309 cfs
Wed12/11 01:30 pm 3.1 ft 309 cfs
Wed12/11 01:15 pm 3.1 ft 309 cfs
Wed12/11 01:00 pm 3.09 ft 306 cfs
Wed12/11 12:45 pm 3.1 ft 309 cfs
Wed12/11 12:30 pm 3.1 ft 309 cfs
Wed12/11 12:15 pm 3.1 ft 309 cfs
Wed12/11 12:00 pm 3.1 ft 309 cfs
Wed12/11 11:45 am 3.09 ft 306 cfs
Wed12/11 11:30 am 3.09 ft 306 cfs
Wed12/11 11:15 am 3.1 ft 309 cfs
Wed12/11 11:00 am 3.09 ft 306 cfs
Wed12/11 10:45 am 3.09 ft 306 cfs
Wed12/11 10:30 am 3.09 ft 306 cfs
Wed12/11 10:15 am 3.1 ft 309 cfs
Wed12/11 10:00 am 3.09 ft 306 cfs
Wed12/11 09:45 am 3.08 ft 303 cfs
Wed12/11 09:30 am 3.09 ft 306 cfs
Wed12/11 09:15 am 3.08 ft 303 cfs
Wed12/11 09:00 am 3.08 ft 303 cfs
Wed12/11 08:45 am 3.07 ft 300 cfs
Wed12/11 08:30 am 3.07 ft 300 cfs
Wed12/11 08:15 am 3.08 ft 303 cfs
Wed12/11 08:00 am 3.07 ft 300 cfs
Wed12/11 07:45 am 3.06 ft 297 cfs
Wed12/11 07:30 am 3.06 ft 297 cfs
Wed12/11 07:15 am 3.05 ft 294 cfs
Wed12/11 07:00 am 3.06 ft 297 cfs
Wed12/11 06:45 am 3.04 ft 291 cfs
Wed12/11 06:30 am 3.04 ft 291 cfs

Latest Forecasts

Currently Forecasted Readings:
Thu12/12 10:00 am 3.62 ft 503 cfs
Thu12/12 04:00 pm 3.9 ft 629 cfs
Thu12/12 10:00 pm 4.15 ft 759 cfs
Fri12/13 04:00 am 4.21 ft 794 cfs
Fri12/13 10:00 am 4.11 ft 736 cfs
Fri12/13 04:00 pm 3.9 ft 632 cfs
Fri12/13 10:00 pm 3.7 ft 537 cfs
Sat12/14 04:00 am 3.49 ft 448 cfs
Sat12/14 10:00 am 3.35 ft 396 cfs
Sat12/14 04:00 pm 3.25 ft 359 cfs
Sat12/14 10:00 pm 3.17 ft 333 cfs
Sun12/15 04:00 am 3.11 ft 314 cfs
Sun12/15 10:00 am 3.07 ft 299 cfs
Sun12/15 04:00 pm 3.03 ft 287 cfs
Sun12/15 10:00 pm 3.0 ft 279 cfs
Mon12/16 04:00 am 2.98 ft 272 cfs
Mon12/16 10:00 am 2.96 ft 267 cfs
Mon12/16 04:00 pm 2.95 ft 265 cfs
Mon12/16 10:00 pm 2.96 ft 268 cfs
Tue12/17 04:00 am 2.96 ft 266 cfs
Tue12/17 10:00 am 2.91 ft 253 cfs
Tue12/17 04:00 pm 2.87 ft 241 cfs
Tue12/17 10:00 pm 2.83 ft 232 cfs
Wed12/18 04:00 am 2.8 ft 224 cfs
Wed12/18 10:00 am 2.77 ft 216 cfs
Wed12/18 04:00 pm 2.75 ft 210 cfs
Wed12/18 10:00 pm 2.76 ft 214 cfs
Thu12/19 04:00 am 2.81 ft 227 cfs
Thu12/19 10:00 am 2.86 ft 238 cfs
Thu12/19 04:00 pm 3.04 ft 290 cfs
Thu12/19 10:00 pm 3.08 ft 303 cfs
Fri12/20 04:00 am 3.0 ft 279 cfs
Fri12/20 10:00 am 3.15 ft 325 cfs
Fri12/20 04:00 pm 3.25 ft 359 cfs
Fri12/20 10:00 pm 3.33 ft 386 cfs
Sat12/21 04:00 am 3.41 ft 418 cfs

Snoqualmie River flood gauge data supplied by the
National Weather Service Northwest River Forecast Center.

Sign up for Floodzilla alerts.